Coll d'en Rebassa, Spain

3:32 PM CET on December 07, 2016 (GMT +0100)
Ciudad Jardin | | Change Station

Elev 20 ft 39.55 °N, 2.69 °E | Updated 16 seconds ago

Partly Cloudy
Partly Cloudy
65.0 °F
Feels Like 65.0 °F
N
16.1
Wind Variable Wind from NE
Gusts 16.1 mph

Today
High -- | Low -- °F
--% Chance of Precip.
Yesterday
High -- | Low -- °F
Precip. -- in
Pressure 30.36 in
Visibility 6.2 miles
Clouds Few 2000 ft
Dew Point 55 °F
Humidity 71%
Rainfall 0.00 in
Snow Depth Not available.
7:56 AM 5:25 PM
First Quarter, 53% visible
METAR LEPA 071400Z 06013KT 9999 FEW020 18/13 Q1028 NOSIG
Pressure 30.36 in
Visibility 6.2 miles
Clouds Few 2000 ft
Dew Point 55 °F
Humidity 71%
Rainfall 0.00 in
Snow Depth Not available.
7:56 AM 5:25 PM
First Quarter, 53% visible
METAR LEPA 071400Z 06013KT 9999 FEW020 18/13 Q1028 NOSIG

10-Day Weather Forecast

×

Almanac

Astronomy

Dec. 07, 2016 Rise Set
Actual Time
Civil Twilight
Nautical Twilight
Astronomical Twilight
Moon
Length of Visible Light
Length of Day
Tomorrow will be .
, % of the Moon is Illuminated

Today's Extremes

Country Highs Country Lows

Community

WunderPhotos

Upload Photos

1,956,116 photos uploaded!

WunderBlog® & News

Nearby

Air Quality

  Air Quality AQ Index Pollutant
Not available.

Snow Depth

Station Depth Elevation

Earthquake Activity

City Distance Mag. Time & Date
Minimum magnitude displayed is 2.5.

Coastal Water Temperatures

Place Temperature

Stations

Nearby Weather Stations

Station Location Temp. Windchill Dew Point Humidity Wind Precip. Elev Updated Type